createdAt,value
2023-01-11T00:01:18.092Z,14.70
2023-01-11T00:03:44.997Z,8.80
2023-01-11T00:06:11.793Z,13.40
2023-01-11T00:08:38.621Z,6.30
2023-01-11T00:11:11.812Z,9.20
2023-01-11T00:13:38.485Z,12.30
2023-01-11T00:16:06.256Z,8.20
2023-01-11T00:18:32.855Z,7.00
2023-01-11T00:21:04.758Z,18.00
2023-01-11T00:23:32.660Z,9.60
2023-01-11T00:26:07.083Z,7.80
2023-01-11T00:28:33.648Z,9.00
2023-01-11T00:31:01.197Z,9.10
2023-01-11T00:33:27.935Z,9.80
2023-01-11T00:35:54.534Z,10.40
2023-01-11T00:38:40.160Z,9.00
2023-01-11T00:41:29.248Z,12.90
2023-01-11T00:44:15.004Z,6.80
2023-01-11T00:47:00.252Z,10.00
2023-01-11T00:49:27.326Z,7.50
2023-01-11T00:51:53.917Z,11.60
2023-01-11T00:54:21.116Z,15.50
2023-01-11T00:56:47.875Z,7.70
2023-01-11T00:59:14.694Z,12.10
2023-01-11T01:01:41.352Z,8.00
2023-01-11T01:04:08.482Z,10.50
2023-01-11T01:06:35.454Z,11.50
2023-01-11T01:09:02.948Z,10.10
2023-01-11T01:11:30.358Z,18.70
2023-01-11T01:14:17.719Z,15.10
2023-01-11T01:16:46.895Z,11.40
2023-01-11T01:19:13.829Z,17.90
2023-01-11T01:21:40.635Z,13.20
2023-01-11T01:24:07.606Z,15.50
2023-01-11T01:26:35.749Z,14.20
2023-01-11T01:29:02.581Z,24.50
2023-01-11T01:31:29.467Z,20.30
2023-01-11T01:33:57.498Z,12.50
2023-01-11T01:36:24.246Z,12.30
2023-01-11T01:38:50.813Z,16.50
2023-01-11T01:41:21.249Z,12.50
2023-01-11T01:43:52.712Z,14.40
2023-01-11T01:46:20.587Z,18.10
2023-01-11T01:48:52.820Z,14.60
2023-01-11T01:51:23.010Z,13.00
2023-01-11T01:53:50.445Z,14.00
2023-01-11T01:56:38.737Z,14.20
2023-01-11T01:59:08.357Z,9.70
2023-01-11T02:01:47.300Z,10.60
2023-01-11T02:04:20.256Z,12.20
2023-01-11T02:06:47.120Z,11.50
2023-01-11T02:09:34.859Z,11.50
2023-01-11T02:12:01.586Z,16.20
2023-01-11T02:14:28.205Z,13.40
2023-01-11T02:16:54.911Z,13.50
2023-01-11T02:19:45.552Z,12.50
2023-01-11T02:22:51.749Z,17.10
2023-01-11T02:25:37.233Z,10.80
2023-01-11T02:28:35.258Z,13.20
2023-01-11T02:31:27.247Z,19.20
2023-01-11T02:34:20.073Z,20.20
2023-01-11T02:37:05.113Z,25.30
2023-01-11T02:39:55.268Z,18.00
2023-01-11T02:43:01.044Z,13.70
2023-01-11T02:45:48.190Z,16.30
2023-01-11T02:49:04.071Z,15.50
2023-01-11T02:51:34.896Z,21.30
2023-01-11T02:54:03.953Z,22.00
2023-01-11T02:56:33.182Z,25.20
2023-01-11T02:59:00.874Z,15.60
2023-01-11T03:01:28.269Z,14.90
2023-01-11T03:03:55.612Z,20.40
2023-01-11T03:06:28.294Z,20.60
2023-01-11T03:09:20.012Z,27.70
2023-01-11T03:12:37.203Z,14.80
2023-01-11T03:15:41.556Z,16.80
2023-01-11T03:18:49.753Z,19.20
2023-01-11T03:21:26.688Z,13.70
2023-01-11T03:24:14.138Z,13.30
2023-01-11T03:26:41.014Z,18.30
2023-01-11T03:29:13.445Z,16.30
2023-01-11T03:31:46.219Z,17.70
2023-01-11T03:34:17.405Z,13.70
2023-01-11T03:36:53.129Z,17.00
2023-01-11T03:39:31.011Z,20.40
2023-01-11T03:41:59.115Z,23.20
2023-01-11T03:44:26.825Z,16.90
2023-01-11T03:46:55.586Z,17.50
2023-01-11T03:49:36.130Z,16.30
2023-01-11T03:52:03.861Z,22.20
2023-01-11T03:54:30.748Z,19.90
2023-01-11T03:57:07.217Z,19.90
2023-01-11T03:59:34.233Z,18.00
2023-01-11T04:02:01.492Z,15.40
2023-01-11T04:04:28.470Z,16.90
2023-01-11T04:06:55.412Z,25.20
2023-01-11T04:09:22.186Z,22.80
2023-01-11T04:11:48.965Z,15.30
2023-01-11T04:14:15.531Z,18.50
2023-01-11T04:16:42.333Z,18.80
2023-01-11T04:19:09.081Z,15.40
2023-01-11T04:21:35.804Z,15.80
2023-01-11T04:24:02.548Z,22.20
2023-01-11T04:26:29.363Z,17.30
2023-01-11T04:28:56.045Z,25.40
2023-01-11T04:31:22.665Z,36.90
2023-01-11T04:33:49.403Z,21.20
2023-01-11T04:36:16.009Z,19.90
2023-01-11T04:38:42.661Z,19.60
2023-01-11T04:41:28.069Z,24.30
2023-01-11T04:43:58.264Z,25.80
2023-01-11T04:46:25.235Z,19.00
2023-01-11T04:48:52.271Z,21.30
2023-01-11T04:51:18.898Z,20.60
2023-01-11T04:53:48.737Z,23.30
2023-01-11T04:56:15.842Z,34.90
2023-01-11T04:58:42.658Z,19.60
2023-01-11T05:01:15.075Z,14.40
2023-01-11T05:03:42.320Z,23.30
2023-01-11T05:06:08.947Z,20.70
2023-01-11T05:08:36.958Z,18.30
2023-01-11T05:11:05.764Z,24.20
2023-01-11T05:13:41.958Z,20.50
2023-01-11T05:16:09.651Z,21.50
2023-01-11T05:18:39.279Z,27.80
2023-01-11T05:21:06.579Z,21.70
2023-01-11T05:23:35.630Z,27.70
2023-01-11T05:26:07.034Z,21.80
2023-01-11T05:28:34.328Z,23.70
2023-01-11T05:31:01.251Z,23.10
2023-01-11T05:33:28.285Z,18.50
2023-01-11T05:36:02.470Z,20.10
2023-01-11T05:38:29.482Z,20.80
2023-01-11T05:41:00.298Z,52.80
2023-01-11T05:43:28.125Z,23.40
2023-01-11T05:45:55.988Z,20.00
2023-01-11T05:48:23.700Z,28.50
2023-01-11T05:50:51.484Z,24.10
2023-01-11T05:53:18.408Z,27.60
2023-01-11T05:55:58.075Z,13.70
2023-01-11T05:58:25.915Z,21.80
2023-01-11T06:00:53.898Z,20.10
2023-01-11T06:03:20.971Z,20.90
2023-01-11T06:05:47.677Z,16.80
2023-01-11T06:08:14.272Z,17.80
2023-01-11T06:10:40.997Z,17.20
2023-01-11T06:13:26.449Z,22.20
2023-01-11T06:16:05.093Z,24.10
2023-01-11T06:18:33.451Z,28.60
2023-01-11T06:21:00.623Z,13.10
2023-01-11T06:23:32.949Z,18.90
2023-01-11T06:26:04.210Z,22.20
2023-01-11T06:28:30.899Z,25.00
2023-01-11T06:30:57.879Z,25.40
2023-01-11T06:33:25.168Z,19.10
2023-01-11T06:35:52.292Z,18.10
2023-01-11T06:38:19.634Z,25.00
2023-01-11T06:40:56.464Z,20.50
2023-01-11T06:43:23.527Z,23.90
2023-01-11T06:45:50.342Z,25.50
2023-01-11T06:48:19.006Z,21.40
2023-01-11T06:50:53.154Z,15.40
2023-01-11T06:53:19.979Z,20.60
2023-01-11T06:55:53.755Z,26.10
2023-01-11T06:58:22.771Z,23.50
2023-01-11T07:00:50.528Z,22.50
2023-01-11T07:03:23.212Z,20.10
2023-01-11T07:08:16.518Z,17.70
2023-01-11T07:10:43.518Z,17.20
2023-01-11T10:47:53.037Z,22.60
2023-01-11T10:50:38.210Z,21.50
2023-01-11T10:53:14.685Z,21.20
2023-01-11T10:56:05.620Z,19.10
2023-01-11T10:59:10.820Z,20.40
2023-01-11T11:01:56.564Z,21.80
2023-01-11T11:04:45.102Z,20.90
2023-01-11T11:07:23.083Z,23.20
2023-01-11T11:10:09.674Z,26.40
2023-01-11T11:12:38.916Z,24.50
2023-01-11T11:15:44.226Z,24.20
2023-01-11T11:18:11.047Z,19.80
2023-01-11T11:20:37.933Z,22.60
2023-01-11T11:23:04.752Z,16.90
2023-01-11T11:25:37.459Z,22.60
2023-01-11T11:28:23.520Z,22.30
2023-01-11T11:30:53.150Z,23.00
2023-01-11T11:33:28.796Z,26.30
2023-01-11T11:36:07.932Z,22.20
2023-01-11T11:38:36.233Z,27.10
2023-01-11T11:41:08.279Z,25.10
2023-01-11T11:43:36.458Z,28.40
2023-01-11T11:46:04.260Z,31.20
2023-01-11T11:48:33.274Z,24.00
2023-01-11T11:51:05.081Z,22.90
2023-01-11T11:54:01.536Z,24.30
2023-01-11T11:56:35.205Z,21.10
2023-01-11T11:59:07.235Z,23.90
2023-01-11T12:01:35.650Z,25.60
2023-01-11T12:04:14.864Z,27.10
2023-01-11T12:06:41.735Z,26.90
2023-01-11T12:09:21.297Z,25.10
2023-01-11T12:11:48.415Z,22.60
2023-01-11T12:14:29.702Z,27.50
2023-01-11T12:16:57.683Z,29.80
2023-01-11T12:19:40.645Z,26.70
2023-01-11T12:22:13.565Z,27.80
2023-01-11T12:24:40.517Z,20.10
2023-01-11T12:27:31.926Z,23.60
2023-01-11T12:29:58.731Z,23.30
2023-01-11T12:32:36.675Z,26.70
2023-01-11T12:35:14.093Z,25.10
2023-01-11T12:38:02.959Z,30.90
2023-01-11T12:46:06.833Z,20.10
2023-01-11T12:48:55.247Z,30.00
2023-01-11T12:51:41.719Z,27.50
2023-01-11T12:54:18.192Z,26.80
2023-01-11T12:57:26.404Z,25.20
2023-01-11T13:00:02.318Z,23.30
2023-01-11T13:02:51.238Z,33.00
2023-01-11T13:08:10.873Z,28.40
2023-01-11T13:10:59.223Z,21.10
2023-01-11T16:22:29.919Z,58.80
2023-01-11T16:24:58.484Z,66.30
2023-01-11T16:27:30.814Z,69.30
2023-01-11T16:29:57.810Z,66.60
2023-01-11T16:32:32.738Z,45.20
2023-01-11T16:35:00.801Z,37.40
2023-01-11T16:37:33.816Z,42.70
2023-01-11T16:40:24.684Z,38.60
2023-01-11T16:42:58.411Z,39.50
2023-01-11T16:45:36.965Z,37.50
2023-01-11T16:48:04.983Z,53.10
2023-01-11T16:50:32.841Z,47.70
2023-01-11T16:53:01.048Z,47.40
2023-01-11T16:55:34.331Z,36.40
2023-01-11T16:58:03.166Z,41.20
2023-01-11T17:00:38.360Z,44.60
2023-01-11T17:03:18.812Z,42.60
2023-01-11T17:06:02.573Z,39.30
2023-01-11T17:08:31.641Z,46.60
2023-01-11T17:13:56.145Z,42.20
2023-01-11T17:16:36.437Z,39.90
2023-01-11T17:19:14.299Z,41.40
2023-01-11T17:21:43.666Z,41.90
2023-01-11T17:24:11.025Z,35.00
2023-01-11T17:26:41.770Z,39.20
2023-01-11T17:29:08.729Z,43.00
2023-01-11T17:31:36.334Z,43.10
2023-01-11T17:34:09.886Z,41.30
2023-01-11T17:36:36.837Z,51.40
2023-01-11T17:39:03.805Z,44.30
2023-01-11T17:41:49.244Z,47.70
2023-01-11T17:44:36.414Z,44.60
2023-01-11T17:47:04.932Z,44.90
2023-01-11T17:49:31.801Z,52.70
2023-01-11T17:52:08.031Z,61.20
2023-01-11T17:54:35.012Z,60.40
2023-01-11T17:57:01.800Z,70.60
2023-01-11T17:59:30.133Z,78.90
2023-01-11T18:02:04.953Z,70.80
2023-01-11T18:04:31.980Z,75.60
2023-01-11T18:07:13.087Z,78.40
2023-01-11T18:09:46.147Z,84.20
2023-01-11T18:12:29.357Z,84.70
2023-01-11T18:14:58.701Z,79.20
2023-01-11T18:17:42.156Z,83.00
2023-01-11T18:20:15.204Z,73.30
2023-01-11T18:22:43.596Z,83.40
2023-01-11T18:25:20.268Z,71.20
2023-01-11T18:27:47.162Z,77.60
2023-01-11T18:30:32.663Z,75.00
2023-01-11T18:33:02.268Z,80.60
2023-01-11T18:35:29.240Z,69.70
2023-01-11T18:37:56.709Z,84.10
2023-01-11T18:40:23.647Z,63.60
2023-01-11T18:42:52.361Z,59.00
2023-01-11T18:45:20.220Z,59.10
2023-01-11T18:47:47.262Z,57.50
2023-01-11T18:50:14.495Z,50.70
2023-01-11T18:52:41.296Z,50.00
2023-01-11T18:55:11.372Z,42.50
2023-01-11T18:57:38.609Z,42.00
2023-01-11T19:00:06.060Z,60.20
2023-01-11T19:02:42.355Z,54.60
2023-01-11T19:05:14.194Z,52.50
2023-01-11T19:07:41.212Z,50.00
2023-01-11T19:10:09.470Z,54.40
2023-01-11T22:09:10.888Z,19.20
2023-01-11T22:11:38.814Z,23.40
2023-01-11T22:14:07.885Z,22.10
2023-01-11T22:16:36.103Z,22.10
2023-01-11T22:19:03.392Z,16.90
2023-01-11T22:21:30.113Z,21.90
2023-01-11T22:23:57.727Z,20.50
2023-01-11T22:26:25.101Z,22.50
2023-01-11T22:29:11.372Z,20.50
2023-01-11T22:31:39.252Z,20.30
2023-01-11T22:34:06.245Z,18.80
2023-01-11T22:36:33.028Z,23.70
2023-01-11T22:39:00.410Z,32.30
2023-01-11T22:41:29.604Z,22.70
2023-01-11T22:43:56.598Z,24.00
2023-01-11T22:46:24.730Z,28.50
2023-01-11T22:48:51.536Z,33.80
2023-01-11T22:51:23.046Z,34.60
2023-01-11T22:53:50.232Z,24.50
2023-01-11T22:56:21.479Z,27.00
2023-01-11T23:11:53.514Z,19.50
2023-01-11T23:14:20.403Z,21.70
2023-01-11T23:16:48.212Z,19.00
2023-01-11T23:19:16.336Z,21.90
2023-01-11T23:21:44.070Z,22.20
2023-01-11T23:24:11.978Z,16.10
2023-01-11T23:26:38.928Z,21.30
2023-01-11T23:29:05.828Z,17.90
2023-01-11T23:31:32.663Z,21.80
2023-01-11T23:34:00.300Z,17.00
2023-01-11T23:36:35.024Z,19.80
2023-01-11T23:39:02.003Z,19.50
2023-01-11T23:41:47.796Z,23.90
2023-01-11T23:44:15.321Z,19.90
2023-01-11T23:47:00.920Z,15.50
2023-01-11T23:49:28.189Z,16.90
2023-01-11T23:51:55.049Z,18.20
